createdAt,value
2024-03-02T00:02:59.850Z,99.31
2024-03-02T00:05:55.447Z,99.25
2024-03-02T00:08:44.158Z,99.34
2024-03-02T00:11:37.468Z,99.39
2024-03-02T00:14:26.163Z,99.40
2024-03-02T00:17:22.456Z,99.53
2024-03-02T00:20:11.663Z,99.65
2024-03-02T00:23:13.960Z,99.49
2024-03-02T00:26:03.250Z,99.58
2024-03-02T00:28:58.016Z,99.59
2024-03-02T00:31:50.077Z,99.65
2024-03-02T00:34:38.701Z,99.50
2024-03-02T00:37:27.312Z,99.50
2024-03-02T00:40:20.270Z,99.58
2024-03-02T00:43:39.402Z,99.65
2024-03-02T00:46:34.816Z,99.59
2024-03-02T00:49:25.119Z,99.53
2024-03-02T00:52:14.259Z,99.69
2024-03-02T00:55:03.005Z,99.55
2024-03-02T00:57:51.805Z,99.47
2024-03-02T01:00:40.706Z,99.54
2024-03-02T01:03:29.466Z,99.66
2024-03-02T01:06:18.311Z,99.65
2024-03-02T01:09:07.005Z,99.64
2024-03-02T01:11:55.586Z,99.61
2024-03-02T01:14:44.222Z,99.72
2024-03-02T01:17:32.844Z,99.67
2024-03-02T01:20:21.463Z,99.70
2024-03-02T01:23:10.074Z,99.90
2024-03-02T01:25:58.882Z,99.92
2024-03-02T01:28:47.789Z,99.96
2024-03-02T01:31:36.796Z,99.99
2024-03-02T01:34:25.996Z,100.00
2024-03-02T01:37:14.621Z,99.87
2024-03-02T01:40:04.030Z,99.71
2024-03-02T01:42:55.297Z,99.50
2024-03-02T01:45:44.212Z,99.72
2024-03-02T01:48:32.944Z,99.94
2024-03-02T01:51:22.573Z,99.92
2024-03-02T01:54:11.352Z,99.92
2024-03-02T01:57:00.541Z,99.81
2024-03-02T01:59:49.620Z,99.89
2024-03-02T02:03:06.039Z,99.84
2024-03-02T02:05:55.124Z,99.68
2024-03-02T02:08:43.830Z,99.66
2024-03-02T02:11:32.644Z,99.57
2024-03-02T02:14:21.381Z,99.68
2024-03-02T02:17:10.194Z,99.78
2024-03-02T02:19:58.822Z,99.52
2024-03-02T02:23:04.007Z,99.50
2024-03-02T02:25:52.812Z,99.49
2024-03-02T02:28:47.972Z,99.38
2024-03-02T02:31:43.279Z,99.33
2024-03-02T02:34:31.914Z,99.29
2024-03-02T02:37:20.641Z,99.14
2024-03-02T02:40:10.233Z,98.84
2024-03-02T02:43:00.535Z,99.05
2024-03-02T02:45:49.461Z,99.33
2024-03-02T02:48:38.221Z,99.43
2024-03-02T02:51:27.474Z,99.38
2024-03-02T02:54:16.325Z,99.36
2024-03-02T02:57:05.112Z,99.35
2024-03-02T02:59:53.723Z,99.53
2024-03-02T03:02:43.186Z,99.68
2024-03-02T03:05:31.787Z,99.92
2024-03-02T03:08:20.427Z,99.83
2024-03-02T03:11:09.121Z,99.71
2024-03-02T03:13:57.802Z,99.81
2024-03-02T03:16:49.690Z,99.67
2024-03-02T03:19:39.780Z,99.28
2024-03-02T03:22:28.494Z,98.90
2024-03-02T03:25:17.188Z,99.28
2024-03-02T03:28:05.957Z,99.34
2024-03-02T03:30:54.661Z,99.33
2024-03-02T03:33:43.335Z,99.42
2024-03-02T03:36:32.097Z,99.53
2024-03-02T03:39:20.763Z,99.82
2024-03-02T03:42:09.433Z,99.92
2024-03-02T03:44:58.068Z,99.87
2024-03-02T03:47:46.743Z,99.73
2024-03-02T03:50:35.384Z,99.93
2024-03-02T03:53:25.461Z,99.97
2024-03-02T03:56:14.577Z,100.00
2024-03-02T03:59:03.316Z,100.00
2024-03-02T04:01:52.089Z,100.00
2024-03-02T04:04:40.855Z,100.00
2024-03-02T04:07:30.468Z,100.00
2024-03-02T04:10:19.189Z,100.00
2024-03-02T04:13:08.542Z,100.00
2024-03-02T04:15:57.272Z,100.00
2024-03-02T04:18:46.049Z,100.00
2024-03-02T04:21:34.777Z,100.00
2024-03-02T04:24:23.443Z,100.00
2024-03-02T04:27:12.098Z,100.00
2024-03-02T04:30:01.530Z,100.00
2024-03-02T04:32:50.455Z,100.00
2024-03-02T04:35:39.245Z,100.00
2024-03-02T04:38:28.941Z,99.99
2024-03-02T04:41:18.711Z,99.92
2024-03-02T04:44:09.170Z,99.87
2024-03-02T04:46:57.852Z,99.71
2024-03-02T04:49:47.647Z,99.92
2024-03-02T04:52:37.896Z,99.70
2024-03-02T04:55:46.502Z,99.57
2024-03-02T04:58:35.233Z,99.73
2024-03-02T05:01:24.118Z,99.91
2024-03-02T05:04:12.923Z,99.93
2024-03-02T05:07:01.515Z,100.00
2024-03-02T05:09:50.238Z,99.92
2024-03-02T05:12:45.313Z,99.85
2024-03-02T05:15:34.216Z,99.97
2024-03-02T05:18:25.012Z,99.78
2024-03-02T05:21:13.786Z,99.92
2024-03-02T05:24:02.463Z,99.49
2024-03-02T05:26:51.106Z,99.63
2024-03-02T05:29:39.830Z,99.76
2024-03-02T05:32:28.902Z,99.60
2024-03-02T05:35:17.501Z,99.63
2024-03-02T05:38:06.280Z,99.68
2024-03-02T05:40:54.868Z,99.81
2024-03-02T05:43:43.581Z,99.98
2024-03-02T05:46:32.278Z,100.00
2024-03-02T05:49:21.357Z,99.99
2024-03-02T05:52:10.022Z,100.00
2024-03-02T05:54:58.744Z,100.00
2024-03-02T05:58:05.719Z,100.00
2024-03-02T06:00:55.818Z,100.00
2024-03-02T06:03:44.965Z,100.00
2024-03-02T06:06:35.067Z,100.00
2024-03-02T06:09:25.964Z,100.00
2024-03-02T06:12:14.690Z,100.00
2024-03-02T06:15:03.375Z,100.00
2024-03-02T06:17:51.985Z,100.00
2024-03-02T06:20:40.759Z,100.00
2024-03-02T06:23:29.508Z,100.00
2024-03-02T06:26:20.565Z,100.00
2024-03-02T06:29:10.395Z,100.00
2024-03-02T06:31:59.038Z,100.00
2024-03-02T06:34:47.683Z,100.00
2024-03-02T06:37:36.421Z,100.00
2024-03-02T06:40:25.027Z,100.00
2024-03-02T06:43:13.826Z,100.00
2024-03-02T06:46:02.794Z,100.00
2024-03-02T06:48:51.516Z,100.00
2024-03-02T06:51:40.315Z,100.00
2024-03-02T06:54:29.173Z,100.00
2024-03-02T06:57:18.343Z,100.00
2024-03-02T07:00:10.061Z,100.00
2024-03-02T07:03:01.668Z,100.00
2024-03-02T07:05:50.309Z,100.00
2024-03-02T07:08:39.084Z,100.00
2024-03-02T07:11:27.945Z,100.00
2024-03-02T07:14:16.642Z,100.00
2024-03-02T07:17:05.252Z,100.00
2024-03-02T07:19:54.023Z,100.00
2024-03-02T07:22:44.935Z,100.00
2024-03-02T07:28:25.637Z,100.00
2024-03-02T07:31:21.151Z,100.00
2024-03-02T07:34:33.557Z,100.00
2024-03-02T07:37:39.915Z,100.00
2024-03-02T07:40:34.236Z,100.00
2024-03-02T07:43:36.469Z,100.00
2024-03-02T07:46:26.703Z,100.00
2024-03-02T07:49:18.133Z,100.00
2024-03-02T07:52:07.248Z,100.00
2024-03-02T07:54:58.915Z,100.00
2024-03-02T07:57:47.793Z,100.00
2024-03-02T08:00:36.993Z,100.00
2024-03-02T08:03:26.341Z,100.00
2024-03-02T08:06:18.637Z,100.00
2024-03-02T08:09:10.975Z,100.00
2024-03-02T08:11:59.629Z,100.00
2024-03-02T08:14:48.786Z,100.00
2024-03-02T08:17:38.433Z,100.00
2024-03-02T08:20:29.863Z,100.00
2024-03-02T08:23:18.882Z,100.00
2024-03-02T08:26:08.336Z,99.96
2024-03-02T08:28:57.434Z,99.99
2024-03-02T08:31:46.061Z,100.00
2024-03-02T08:34:36.596Z,100.00
2024-03-02T08:37:25.310Z,99.97
2024-03-02T08:40:17.649Z,99.76
2024-03-02T08:43:08.256Z,99.85
2024-03-02T08:45:57.138Z,99.58
2024-03-02T08:48:46.105Z,99.68
2024-03-02T08:51:34.847Z,99.52
2024-03-02T08:54:23.651Z,98.91
2024-03-02T08:57:12.469Z,98.97
2024-03-02T09:00:01.530Z,99.08
2024-03-02T09:02:50.232Z,99.21
2024-03-02T09:05:38.990Z,99.69
2024-03-02T09:08:27.833Z,99.17
2024-03-02T09:11:16.622Z,99.43
2024-03-02T09:14:06.284Z,98.97
2024-03-02T09:16:54.941Z,98.66
2024-03-02T09:19:43.808Z,98.06
2024-03-02T09:22:33.343Z,97.93
2024-03-02T09:25:22.088Z,97.45
2024-03-02T09:28:12.153Z,97.73
2024-03-02T09:31:02.322Z,97.89
2024-03-02T09:33:51.348Z,97.90
2024-03-02T09:36:40.022Z,98.16
2024-03-02T09:39:28.682Z,98.01
2024-03-02T09:42:17.373Z,97.62
2024-03-02T09:45:07.631Z,97.01
2024-03-02T09:47:56.357Z,96.99
2024-03-02T09:50:45.392Z,96.19
2024-03-02T09:53:35.510Z,95.99
2024-03-02T09:56:24.337Z,95.77
2024-03-02T09:59:14.639Z,95.69
2024-03-02T10:02:04.183Z,95.75
2024-03-02T10:04:52.805Z,96.01
2024-03-02T10:07:41.979Z,95.86
2024-03-02T10:10:41.526Z,95.58
2024-03-02T10:13:30.889Z,96.08
2024-03-02T10:16:19.465Z,96.34
2024-03-02T10:19:25.296Z,95.88
2024-03-02T10:22:15.083Z,95.91
2024-03-02T10:27:52.945Z,95.07
2024-03-02T10:30:41.631Z,94.13
2024-03-02T10:33:30.220Z,94.41
2024-03-02T10:36:19.216Z,93.36
2024-03-02T10:39:08.945Z,94.21
2024-03-02T10:41:58.184Z,94.38
2024-03-02T10:44:47.830Z,93.55
2024-03-02T10:47:38.826Z,93.35
2024-03-02T10:50:27.455Z,93.24
2024-03-02T10:53:16.054Z,92.65
2024-03-02T10:56:10.043Z,93.10
2024-03-02T10:59:05.176Z,92.53
2024-03-02T11:02:00.270Z,92.04
2024-03-02T11:04:51.378Z,92.01
2024-03-02T11:07:41.700Z,91.65
2024-03-02T11:10:55.604Z,92.52
2024-03-02T11:13:51.386Z,92.64
2024-03-02T11:16:42.561Z,92.71
2024-03-02T11:19:31.662Z,92.96
2024-03-02T11:22:21.031Z,93.39
2024-03-02T11:25:25.591Z,92.55
2024-03-02T11:28:14.311Z,91.74
2024-03-02T11:31:03.063Z,91.93
2024-03-02T11:33:52.068Z,92.02
2024-03-02T11:36:40.733Z,91.91
2024-03-02T11:39:30.094Z,91.83
2024-03-02T11:42:19.361Z,92.01
2024-03-02T11:45:10.112Z,92.05
2024-03-02T11:47:59.541Z,92.47
2024-03-02T11:50:51.653Z,92.35
2024-03-02T11:53:41.623Z,92.36
2024-03-02T11:56:32.523Z,92.26
2024-03-02T11:59:22.096Z,92.12
2024-03-02T12:02:17.306Z,92.18
2024-03-02T12:05:06.255Z,92.11
2024-03-02T12:07:59.030Z,91.99
2024-03-02T12:11:02.171Z,91.92
2024-03-02T12:13:59.188Z,91.87
2024-03-02T12:16:47.766Z,92.07
2024-03-02T12:19:36.563Z,91.84
2024-03-02T12:22:25.312Z,91.35
2024-03-02T12:25:14.405Z,91.50
2024-03-02T12:28:04.274Z,91.64
2024-03-02T12:30:53.281Z,91.15
2024-03-02T12:33:43.041Z,91.09
2024-03-02T12:36:32.378Z,91.06
2024-03-02T12:39:23.289Z,91.03
2024-03-02T12:42:12.221Z,91.09
2024-03-02T12:45:01.084Z,91.18
2024-03-02T12:47:49.938Z,91.23
2024-03-02T12:50:38.719Z,91.06
2024-03-02T12:53:27.666Z,90.98
2024-03-02T12:56:16.690Z,90.69
2024-03-02T12:59:07.067Z,90.48
2024-03-02T13:01:59.021Z,90.43
2024-03-02T13:04:57.616Z,90.66
2024-03-02T13:07:49.028Z,90.49
2024-03-02T13:10:39.077Z,90.13
2024-03-02T13:13:27.769Z,90.12
2024-03-02T13:16:17.510Z,90.42
2024-03-02T13:19:09.295Z,90.46
2024-03-02T13:21:58.929Z,90.43
2024-03-02T13:24:47.710Z,90.26
2024-03-02T13:27:36.501Z,90.65
2024-03-02T13:30:25.168Z,90.44
2024-03-02T13:33:14.130Z,90.60
2024-03-02T13:36:04.079Z,90.68
2024-03-02T13:38:52.835Z,90.92
2024-03-02T13:41:41.540Z,90.75
2024-03-02T13:44:30.223Z,90.17
2024-03-02T13:47:19.084Z,90.08
2024-03-02T13:50:08.516Z,89.88
2024-03-02T13:52:57.989Z,89.53
2024-03-02T13:55:47.268Z,89.46
2024-03-02T13:58:36.050Z,89.55
2024-03-02T14:01:25.056Z,89.53
2024-03-02T14:04:13.889Z,89.37
2024-03-02T14:07:03.236Z,89.63
2024-03-02T14:09:52.022Z,89.65
2024-03-02T14:12:42.259Z,89.82
2024-03-02T14:15:32.586Z,89.66
2024-03-02T14:18:22.560Z,89.59
2024-03-02T14:21:11.754Z,89.21
2024-03-02T14:24:00.528Z,89.38
2024-03-02T14:26:49.216Z,89.14
2024-03-02T14:29:39.111Z,89.11
2024-03-02T14:32:28.066Z,89.20
2024-03-02T14:35:17.633Z,89.17
2024-03-02T14:38:06.325Z,89.44
2024-03-02T14:40:55.057Z,89.15
2024-03-02T14:43:45.879Z,89.44
2024-03-02T14:46:34.950Z,89.76
2024-03-02T14:49:23.619Z,89.67
2024-03-02T14:52:12.292Z,89.72
2024-03-02T14:55:01.015Z,89.64
2024-03-02T14:57:49.847Z,89.44
2024-03-02T15:00:38.652Z,89.51
2024-03-02T15:03:27.585Z,89.57
2024-03-02T15:06:16.240Z,89.60
2024-03-02T15:09:05.135Z,89.58
2024-03-02T15:11:53.866Z,89.36
2024-03-02T15:14:48.194Z,89.53
2024-03-02T15:17:36.880Z,89.41
2024-03-02T15:20:25.559Z,89.41
2024-03-02T15:23:14.763Z,89.45
2024-03-02T15:26:03.911Z,89.51
2024-03-02T15:28:54.649Z,89.50
2024-03-02T15:31:43.624Z,89.37
2024-03-02T15:34:32.910Z,89.29
2024-03-02T15:37:21.623Z,89.47
2024-03-02T15:40:10.911Z,89.48
2024-03-02T15:42:59.670Z,89.33
2024-03-02T15:45:48.608Z,89.71
2024-03-02T15:48:37.565Z,89.44
2024-03-02T15:51:26.187Z,89.73
2024-03-02T15:54:14.781Z,89.63
2024-03-02T15:57:03.644Z,89.54
2024-03-02T15:59:52.516Z,89.64
2024-03-02T16:02:41.329Z,89.33
2024-03-02T16:05:30.113Z,89.42
2024-03-02T16:08:18.765Z,89.21
2024-03-02T16:11:07.386Z,89.30
2024-03-02T16:13:56.051Z,89.26
2024-03-02T16:16:47.103Z,89.20
2024-03-02T16:19:38.481Z,89.38
2024-03-02T16:22:27.292Z,89.18
2024-03-02T16:25:16.023Z,89.24
2024-03-02T16:28:08.548Z,89.23
2024-03-02T16:30:57.287Z,89.34
2024-03-02T16:33:48.629Z,89.43
2024-03-02T16:36:37.866Z,89.26
2024-03-02T16:39:27.891Z,89.39
2024-03-02T16:42:17.493Z,89.44
2024-03-02T16:45:06.489Z,89.57
2024-03-02T16:47:55.212Z,90.00
2024-03-02T16:50:43.857Z,90.24
2024-03-02T16:53:32.484Z,90.31
2024-03-02T16:56:21.116Z,90.52
2024-03-02T16:59:10.419Z,90.47
2024-03-02T17:02:00.104Z,90.69
2024-03-02T17:04:48.759Z,90.75
2024-03-02T17:07:37.370Z,90.79
2024-03-02T17:10:26.489Z,90.83
2024-03-02T17:13:15.383Z,90.89
2024-03-02T17:16:04.422Z,90.97
2024-03-02T17:18:53.817Z,90.97
2024-03-02T17:21:42.830Z,91.23
2024-03-02T17:24:31.531Z,91.15
2024-03-02T17:27:20.335Z,91.31
2024-03-02T17:30:09.675Z,91.33
2024-03-02T17:32:58.294Z,91.01
2024-03-02T17:35:48.601Z,91.25
2024-03-02T17:38:37.232Z,91.31
2024-03-02T17:41:26.058Z,91.31
2024-03-02T17:44:16.218Z,91.37
2024-03-02T17:47:05.498Z,91.38
2024-03-02T17:49:54.368Z,91.66
2024-03-02T17:52:43.758Z,91.61
2024-03-02T17:55:32.397Z,91.69
2024-03-02T17:58:21.050Z,91.91
2024-03-02T18:01:12.448Z,92.00
2024-03-02T18:04:01.186Z,92.05
2024-03-02T18:06:50.127Z,92.06
2024-03-02T18:09:38.915Z,92.17
2024-03-02T18:12:28.584Z,92.17
2024-03-02T18:15:17.366Z,92.22
2024-03-02T18:18:07.468Z,92.21
2024-03-02T18:20:56.031Z,92.45
2024-03-02T18:23:44.699Z,92.45
2024-03-02T18:26:35.474Z,92.75
2024-03-02T18:29:24.160Z,92.52
2024-03-02T18:32:15.008Z,92.75
2024-03-02T18:35:06.397Z,92.72
2024-03-02T18:37:54.965Z,92.80
2024-03-02T18:40:48.328Z,92.89
2024-03-02T18:43:36.939Z,92.83
2024-03-02T18:46:25.593Z,92.82
2024-03-02T18:49:14.262Z,93.06
2024-03-02T18:52:03.224Z,93.05
2024-03-02T18:54:51.997Z,92.99
2024-03-02T18:57:40.570Z,93.10
2024-03-02T19:00:29.638Z,93.24
2024-03-02T19:03:18.441Z,93.16
2024-03-02T19:06:09.037Z,93.22
2024-03-02T19:08:59.352Z,93.27
2024-03-02T19:11:48.135Z,93.37
2024-03-02T19:14:36.801Z,93.37
2024-03-02T19:17:25.438Z,93.27
2024-03-02T19:20:14.292Z,93.38
2024-03-02T19:23:03.164Z,93.40
2024-03-02T19:25:51.727Z,93.53
2024-03-02T19:28:40.330Z,93.43
2024-03-02T19:31:28.898Z,93.64
2024-03-02T19:34:19.235Z,93.62
2024-03-02T19:37:08.379Z,93.80
2024-03-02T19:39:58.501Z,93.79
2024-03-02T19:42:47.745Z,93.92
2024-03-02T19:45:36.590Z,93.83
2024-03-02T19:48:25.287Z,93.87
2024-03-02T19:51:13.930Z,93.92
2024-03-02T19:54:04.453Z,93.98
2024-03-02T19:56:55.773Z,94.06
2024-03-02T19:59:44.719Z,94.12
2024-03-02T20:02:33.417Z,93.93
2024-03-02T20:05:22.738Z,94.15
2024-03-02T20:08:11.625Z,94.02
2024-03-02T20:11:04.314Z,94.20
2024-03-02T20:13:52.865Z,94.39
2024-03-02T20:16:45.858Z,94.43
2024-03-02T20:19:34.473Z,94.19
2024-03-02T20:22:23.054Z,94.26
2024-03-02T20:25:13.577Z,94.34
2024-03-02T20:28:02.402Z,94.42
2024-03-02T20:30:51.375Z,94.53
2024-03-02T20:33:40.098Z,94.86
2024-03-02T20:36:28.865Z,94.75
2024-03-02T20:39:18.662Z,94.79
2024-03-02T20:42:07.325Z,94.94
2024-03-02T20:44:56.174Z,94.75
2024-03-02T20:47:46.410Z,94.79
2024-03-02T20:50:35.499Z,94.91
2024-03-02T20:53:24.256Z,94.71
2024-03-02T20:56:12.892Z,94.76
2024-03-02T20:59:01.536Z,95.07
2024-03-02T21:01:50.266Z,95.22
2024-03-02T21:04:38.945Z,94.86
2024-03-02T21:07:27.684Z,94.77
2024-03-02T21:10:17.006Z,94.93
2024-03-02T21:13:05.652Z,95.12
2024-03-02T21:15:54.318Z,95.23
2024-03-02T21:18:43.613Z,95.09
2024-03-02T21:21:32.869Z,95.14
2024-03-02T21:24:21.696Z,94.95
2024-03-02T21:27:12.451Z,95.32
2024-03-02T21:30:01.162Z,95.33
2024-03-02T21:32:53.052Z,95.45
2024-03-02T21:35:41.817Z,95.35
2024-03-02T21:38:31.247Z,95.55
2024-03-02T21:41:20.197Z,95.65
2024-03-02T21:44:09.174Z,95.77
2024-03-02T21:46:57.749Z,95.73
2024-03-02T21:49:46.978Z,96.04
2024-03-02T21:52:35.715Z,95.89
2024-03-02T21:55:27.352Z,96.07
2024-03-02T21:58:16.104Z,96.24
2024-03-02T22:01:04.902Z,96.19
2024-03-02T22:03:54.503Z,96.32
2024-03-02T22:06:43.093Z,96.46
2024-03-02T22:09:31.698Z,96.62
2024-03-02T22:12:20.283Z,96.70
2024-03-02T22:15:09.301Z,96.83
2024-03-02T22:17:59.831Z,96.88
2024-03-02T22:20:48.662Z,96.88
2024-03-02T22:23:39.325Z,97.14
2024-03-02T22:26:27.894Z,97.12
2024-03-02T22:29:16.499Z,97.13
2024-03-02T22:32:06.883Z,97.18
2024-03-02T22:34:55.570Z,97.36
2024-03-02T22:37:44.236Z,97.56
2024-03-02T22:40:32.858Z,97.58
2024-03-02T22:43:21.538Z,97.68
2024-03-02T22:46:13.739Z,97.77
2024-03-02T22:49:02.443Z,97.80
2024-03-02T22:51:52.469Z,97.76
2024-03-02T22:54:41.201Z,97.68
2024-03-02T22:57:30.109Z,97.83
2024-03-02T23:00:50.716Z,97.89
2024-03-02T23:03:41.050Z,97.91
2024-03-02T23:06:29.846Z,97.96
2024-03-02T23:09:18.529Z,98.10
2024-03-02T23:12:07.289Z,98.06
2024-03-02T23:14:55.875Z,97.96
2024-03-02T23:17:44.564Z,98.25
2024-03-02T23:20:33.114Z,98.23
2024-03-02T23:23:21.682Z,98.31
2024-03-02T23:26:12.300Z,97.94
2024-03-02T23:29:00.956Z,98.06
2024-03-02T23:31:49.725Z,97.97
2024-03-02T23:34:39.291Z,97.89
2024-03-02T23:37:31.302Z,97.40
2024-03-02T23:40:39.021Z,97.13
2024-03-02T23:43:27.607Z,97.12
2024-03-02T23:46:16.217Z,97.71
2024-03-02T23:49:04.823Z,97.92
2024-03-02T23:51:55.122Z,97.86
2024-03-02T23:54:43.876Z,97.91
2024-03-02T23:57:32.745Z,98.01
